Time;durP1;ratioP1;P1;durP2;ratioP2;P2;SDS_P1;SDS_P2;PMS_P1;PMS_P2;Temp;Humidity;BMP_temperature;BMP_pressure;BME280_temperature;BME280_humidity;BME280_pressure;Samples;Min_cycle;Max_cycle;Signal;HPM_P1;HPM_P2
2023/04/22 00:01:23;;;;;;;13.57;10.10;;;9.70;99.90;;;;;;4914351;29;20232;-87
2023/04/22 00:03:50;;;;;;;12.77;10.80;;;9.60;99.90;;;;;;4912184;29;20241;-87
2023/04/22 00:06:20;;;;;;;15.93;10.50;;;9.50;99.90;;;;;;4901848;29;20673;-86
2023/04/22 00:08:48;;;;;;;17.87;12.07;;;9.50;99.90;;;;;;4887270;29;20297;-86
2023/04/22 00:11:15;;;;;;;16.30;11.27;;;9.50;99.90;;;;;;4895858;29;20218;-86
2023/04/22 00:13:42;;;;;;;17.83;11.30;;;9.40;99.90;;;;;;4895058;29;20210;-86
2023/04/22 00:16:09;;;;;;;17.00;11.17;;;9.50;99.90;;;;;;4894513;29;20249;-87
2023/04/22 00:18:36;;;;;;;15.73;11.00;;;9.40;99.90;;;;;;4901318;29;20222;-86
2023/04/22 00:21:05;;;;;;;16.87;10.80;;;9.40;99.90;;;;;;4901869;29;20220;-88
2023/04/22 00:23:32;;;;;;;17.37;11.13;;;9.40;99.90;;;;;;4881870;29;20754;-85
2023/04/22 00:26:00;;;;;;;16.20;10.77;;;9.40;99.90;;;;;;4893902;29;20259;-86
2023/04/22 00:28:27;;;;;;;19.17;10.77;;;9.30;99.90;;;;;;4890383;29;20241;-86
2023/04/22 00:30:54;;;;;;;21.53;12.20;;;9.30;99.90;;;;;;4878562;29;20233;-87
2023/04/22 00:33:21;;;;;;;19.43;12.60;;;9.30;99.90;;;;;;4896985;29;20223;-87
2023/04/22 00:35:54;;;;;;;19.87;12.37;;;9.20;99.90;;;;;;4890796;29;20225;-85
2023/04/22 00:38:22;;;;;;;19.67;12.50;;;9.50;99.90;;;;;;4905678;29;20242;-87
2023/04/22 00:40:49;;;;;;;20.80;12.83;;;8.50;99.90;;;;;;4894341;29;20213;-86
2023/04/22 00:43:16;;;;;;;19.00;12.47;;;9.30;99.90;;;;;;4897576;29;20205;-86
2023/04/22 00:45:44;;;;;;;20.13;13.20;;;9.10;99.90;;;;;;4892201;29;20244;-87
2023/04/22 00:48:13;;;;;;;22.87;13.20;;;9.10;99.90;;;;;;4893502;29;20203;-86
2023/04/22 00:50:41;;;;;;;23.37;13.63;;;9.10;99.90;;;;;;4876744;29;20216;-86
2023/04/22 00:53:08;;;;;;;17.83;12.60;;;9.10;99.90;;;;;;4892636;29;20270;-87
2023/04/22 00:55:36;;;;;;;19.93;13.23;;;9.00;99.90;;;;;;4894960;29;20267;-87
2023/04/22 00:58:04;;;;;;;20.63;14.17;;;9.00;99.90;;;;;;4891794;29;20236;-87
2023/04/22 01:00:31;;;;;;;21.20;13.17;;;9.00;99.90;;;;;;4896486;29;20226;-88
2023/04/22 01:02:59;;;;;;;25.10;15.00;;;9.00;99.90;;;;;;4903704;29;20213;-86
2023/04/22 01:05:30;;;;;;;18.90;12.97;;;8.80;99.90;;;;;;4905399;29;20242;-88
2023/04/22 01:07:58;;;;;;;19.90;12.43;;;8.90;99.90;;;;;;4914823;29;20222;-89
2023/04/22 01:10:24;;;;;;;21.60;12.67;;;8.80;99.90;;;;;;4895396;29;20217;-86
2023/04/22 01:12:52;;;;;;;20.13;13.63;;;8.70;99.90;;;;;;4911546;29;20220;-86
2023/04/22 01:15:19;;;;;;;21.77;13.17;;;8.70;99.90;;;;;;4914927;29;20325;-87
2023/04/22 01:17:46;;;;;;;19.13;12.33;;;8.60;99.90;;;;;;4914650;29;20243;-88
2023/04/22 01:20:18;;;;;;;22.77;14.33;;;8.60;99.90;;;;;;4923325;29;20675;-88
2023/04/22 01:22:49;;;;;;;22.97;14.73;;;8.60;99.90;;;;;;4902358;29;20296;-87
2023/04/22 01:25:17;;;;;;;23.03;13.97;;;8.60;99.90;;;;;;4898321;29;20251;-88
2023/04/22 01:27:44;;;;;;;22.37;14.30;;;8.50;99.90;;;;;;4893168;29;20207;-88
2023/04/22 01:30:12;;;;;;;19.80;13.20;;;8.50;99.90;;;;;;4915699;29;20677;-85
2023/04/22 01:32:39;;;;;;;22.60;14.10;;;8.40;99.90;;;;;;4921711;29;20217;-88
2023/04/22 01:35:08;;;;;;;19.53;13.00;;;8.40;99.90;;;;;;4916891;29;20208;-88
2023/04/22 01:37:35;;;;;;;21.83;14.50;;;8.40;99.90;;;;;;4908515;29;20259;-86
2023/04/22 01:40:03;;;;;;;22.43;13.90;;;8.30;99.90;;;;;;4903254;29;20211;-87
2023/04/22 01:42:30;;;;;;;22.17;14.20;;;8.30;99.90;;;;;;4912553;29;20705;-87
2023/04/22 01:45:00;;;;;;;17.10;12.33;;;8.20;99.90;;;;;;4917972;29;20282;-86
2023/04/22 01:47:27;;;;;;;23.37;15.50;;;8.20;99.90;;;;;;4902513;29;20300;-86
2023/04/22 01:49:54;;;;;;;22.07;13.63;;;8.10;99.90;;;;;;4902817;29;20289;-86
2023/04/22 01:52:22;;;;;;;25.67;15.40;;;8.10;99.90;;;;;;4914764;29;20234;-86
2023/04/22 01:54:50;;;;;;;22.37;13.70;;;8.10;99.90;;;;;;4915580;29;20236;-89
2023/04/22 01:57:20;;;;;;;26.90;15.07;;;8.00;99.90;;;;;;4916943;29;20229;-87
2023/04/22 01:59:47;;;;;;;19.87;13.00;;;8.00;99.90;;;;;;4926292;29;20645;-88
2023/04/22 02:02:13;;;;;;;20.30;13.40;;;8.00;99.90;;;;;;4913510;29;20840;-87
2023/04/22 02:04:41;;;;;;;19.37;13.00;;;7.90;99.90;;;;;;4916342;29;20251;-88
2023/04/22 02:07:08;;;;;;;20.83;13.30;;;7.90;99.90;;;;;;4909032;29;20526;-86
2023/04/22 02:09:34;;;;;;;64.77;15.40;;;7.90;99.90;;;;;;4926230;29;20215;-87
2023/04/22 02:12:03;;;;;;;21.90;13.77;;;7.90;99.90;;;;;;4913949;29;20216;-87
2023/04/22 02:14:30;;;;;;;18.10;11.83;;;7.80;99.90;;;;;;4928416;29;20245;-86
2023/04/22 02:17:07;;;;;;;18.67;12.40;;;8.20;99.90;;;;;;4930033;29;20232;-87
2023/04/22 02:19:34;;;;;;;20.30;13.13;;;8.00;99.90;;;;;;4907214;29;20254;-86
2023/04/22 02:22:03;;;;;;;20.30;11.37;;;7.60;99.90;;;;;;4926194;29;20885;-87
2023/04/22 02:24:31;;;;;;;18.70;12.33;;;7.60;99.90;;;;;;4921699;29;20212;-86
2023/04/22 02:26:58;;;;;;;19.23;13.03;;;7.60;99.90;;;;;;4924779;29;20220;-85
2023/04/22 02:29:26;;;;;;;17.07;11.23;;;7.40;99.90;;;;;;4929057;29;20230;-86
2023/04/22 02:31:53;;;;;;;17.97;11.67;;;7.60;99.90;;;;;;4912959;29;20266;-87
2023/04/22 02:34:20;;;;;;;21.30;13.03;;;7.50;99.90;;;;;;4930094;29;20217;-88
2023/04/22 02:36:47;;;;;;;20.87;13.37;;;7.60;99.90;;;;;;4926885;29;20199;-88
2023/04/22 02:39:14;;;;;;;20.87;13.40;;;7.50;99.90;;;;;;4938357;29;20257;-88
2023/04/22 02:41:41;;;;;;;22.63;13.13;;;6.90;99.90;;;;;;4924490;28;20202;-88
2023/04/22 02:44:09;;;;;;;24.40;13.27;;;7.40;99.90;;;;;;4937459;29;20282;-88
2023/04/22 02:46:36;;;;;;;20.40;12.67;;;7.00;99.90;;;;;;4942955;28;20191;-88
2023/04/22 02:49:04;;;;;;;23.23;14.27;;;7.30;99.90;;;;;;4925212;29;20195;-88
2023/04/22 02:51:36;;;;;;;21.47;12.70;;;8.10;99.90;;;;;;4940482;29;20269;-88
2023/04/22 02:54:05;;;;;;;21.90;11.77;;;7.50;99.90;;;;;;4937531;29;20195;-88
2023/04/22 02:56:32;;;;;;;18.50;11.57;;;7.40;99.90;;;;;;4937455;29;20212;-87
2023/04/22 02:58:59;;;;;;;19.93;12.10;;;7.30;99.90;;;;;;4937541;28;20231;-88
2023/04/22 03:01:26;;;;;;;24.37;12.57;;;8.20;99.90;;;;;;4935481;28;20187;-87
2023/04/22 03:03:55;;;;;;;25.00;12.40;;;7.80;99.90;;;;;;4924229;29;20203;-88
2023/04/22 03:06:23;;;;;;;19.43;11.93;;;7.70;99.90;;;;;;4893817;29;20209;-86
2023/04/22 03:08:50;;;;;;;35.33;13.53;;;7.30;99.90;;;;;;4928297;29;20201;-89
2023/04/22 03:11:19;;;;;;;31.83;13.07;;;8.20;99.90;;;;;;4914953;29;20298;-87
2023/04/22 03:13:46;;;;;;;34.10;14.27;;;7.90;99.90;;;;;;4912434;29;20187;-88
2023/04/22 03:16:13;;;;;;;44.37;15.23;;;7.90;99.90;;;;;;4917958;29;20226;-86
2023/04/22 03:18:40;;;;;;;45.23;14.03;;;7.30;99.90;;;;;;4900591;29;20294;-86
2023/04/22 03:21:07;;;;;;;40.63;14.57;;;7.30;99.90;;;;;;4923733;29;20315;-89
2023/04/22 03:23:34;;;;;;;39.03;13.43;;;7.90;99.90;;;;;;4918342;29;20188;-88
2023/04/22 03:26:01;;;;;;;42.80;14.30;;;7.30;99.90;;;;;;4918344;29;20191;-88
2023/04/22 03:28:29;;;;;;;30.10;11.60;;;7.30;99.90;;;;;;4906473;29;20208;-88
2023/04/22 03:30:57;;;;;;;41.43;13.13;;;7.30;99.90;;;;;;4918201;29;20211;-87
2023/04/22 03:33:25;;;;;;;34.00;12.13;;;7.30;99.90;;;;;;4918704;29;20187;-87
2023/04/22 03:35:53;;;;;;;20.87;11.00;;;7.40;99.90;;;;;;4905481;29;20257;-87
2023/04/22 03:38:22;;;;;;;26.03;12.13;;;7.30;99.90;;;;;;4917745;29;20229;-86
2023/04/22 03:40:48;;;;;;;16.73;11.37;;;7.20;99.90;;;;;;4918322;29;20289;-89
2023/04/22 03:43:17;;;;;;;25.53;13.00;;;7.20;99.90;;;;;;4918115;29;20194;-87
2023/04/22 03:45:44;;;;;;;29.77;13.40;;;7.20;99.90;;;;;;4903699;29;20228;-86
2023/04/22 03:48:13;;;;;;;27.97;14.10;;;7.20;99.90;;;;;;4921628;29;20185;-88
2023/04/22 03:50:41;;;;;;;35.77;13.80;;;7.20;99.90;;;;;;4919027;29;20223;-87
2023/04/22 03:53:09;;;;;;;24.50;13.17;;;7.20;99.90;;;;;;4920495;29;20199;-88
2023/04/22 03:55:37;;;;;;;24.37;12.60;;;8.00;99.90;;;;;;4901717;29;20203;-89
2023/04/22 03:58:05;;;;;;;29.17;14.57;;;7.50;99.90;;;;;;4921055;29;20214;-87
2023/04/22 04:00:43;;;;;;;22.70;13.50;;;8.10;99.90;;;;;;4911609;29;20222;-90
2023/04/22 04:03:36;;;;;;;23.60;12.60;;;7.00;99.90;;;;;;4918016;29;20206;-88
2023/04/22 04:06:03;;;;;;;34.83;15.00;;;7.30;99.90;;;;;;4932418;29;20231;-87
2023/04/22 04:08:38;;;;;;;22.00;12.23;;;7.40;99.90;;;;;;4939833;29;20238;-87
2023/04/22 04:11:10;;;;;;;24.10;12.67;;;7.70;99.90;;;;;;4915736;29;20243;-88
2023/04/22 04:13:40;;;;;;;23.80;13.17;;;8.00;99.90;;;;;;4931818;29;20206;-87
2023/04/22 04:16:07;;;;;;;24.50;13.43;;;7.40;99.90;;;;;;4940183;29;20902;-89
2023/04/22 04:18:37;;;;;;;24.60;13.87;;;8.00;99.90;;;;;;4924398;29;20209;-87
2023/04/22 04:21:38;;;;;;;26.70;14.33;;;8.10;99.90;;;;;;4924157;29;20241;-89
2023/04/22 04:24:18;;;;;;;26.73;14.30;;;7.40;99.90;;;;;;4949178;29;20191;-88
2023/04/22 04:26:47;;;;;;;23.83;13.57;;;7.40;99.90;;;;;;4924463;29;20208;-86
2023/04/22 04:29:19;;;;;;;30.83;15.47;;;7.40;99.90;;;;;;4951641;28;20198;-86
2023/04/22 04:32:21;;;;;;;28.20;13.97;;;7.40;99.90;;;;;;4943147;28;20175;-87
2023/04/22 04:35:17;;;;;;;25.93;13.63;;;7.50;99.90;;;;;;4941126;29;20269;-87
2023/04/22 04:37:52;;;;;;;25.53;14.07;;;7.50;99.90;;;;;;4939783;29;20222;-88
2023/04/22 04:40:23;;;;;;;22.67;13.77;;;7.50;99.90;;;;;;4936655;29;20193;-87
2023/04/22 04:42:52;;;;;;;29.37;15.10;;;8.00;99.90;;;;;;4906277;29;20220;-87
2023/04/22 04:45:24;;;;;;;29.17;15.47;;;7.50;99.90;;;;;;4923865;29;20185;-88
2023/04/22 04:51:06;;;;;;;27.77;14.93;;;7.80;99.90;;;;;;4938639;29;20203;-89
2023/04/22 04:54:17;;;;;;;30.20;15.03;;;7.60;99.90;;;;;;4950351;29;20208;-87
2023/04/22 04:57:03;;;;;;;25.33;14.03;;;7.60;99.90;;;;;;4938647;29;20222;-87
2023/04/22 04:59:32;;;;;;;26.97;14.70;;;7.70;99.90;;;;;;4948858;29;20240;-87
2023/04/22 05:02:04;;;;;;;29.63;16.03;;;7.70;99.90;;;;;;4941520;29;20203;-87
2023/04/22 05:08:15;;;;;;;29.13;15.63;;;7.70;99.90;;;;;;4934523;29;20246;-88
2023/04/22 05:10:44;;;;;;;28.67;14.77;;;7.70;99.90;;;;;;4940386;29;20232;-88
2023/04/22 05:21:03;;;;;;;35.00;17.27;;;7.80;99.90;;;;;;4927334;29;20189;-86
2023/04/22 05:24:07;;;;;;;39.37;19.57;;;7.80;99.90;;;;;;4939711;29;20447;-87
2023/04/22 05:26:39;;;;;;;32.97;17.50;;;7.90;99.90;;;;;;4924156;29;20231;-86
2023/04/22 05:33:15;;;;;;;37.17;19.17;;;8.00;99.90;;;;;;4937422;29;20707;-86
2023/04/22 05:35:52;;;;;;;42.47;20.73;;;8.00;99.90;;;;;;4935065;29;20208;-87
2023/04/22 05:38:59;;;;;;;40.70;21.37;;;8.10;99.90;;;;;;4921007;29;20228;-86
2023/04/22 05:41:55;;;;;;;36.30;18.83;;;8.20;99.90;;;;;;4921691;29;20232;-88
2023/04/22 05:44:42;;;;;;;35.60;17.47;;;8.30;99.90;;;;;;4918095;29;20228;-87
2023/04/22 05:47:15;;;;;;;29.93;15.37;;;8.30;99.90;;;;;;4929782;29;20236;-85
2023/04/22 05:49:53;;;;;;;30.80;16.10;;;8.40;99.90;;;;;;4937304;29;20212;-86
2023/04/22 05:52:27;;;;;;;29.73;17.07;;;8.40;99.90;;;;;;4929527;29;20243;-89
2023/04/22 05:55:01;;;;;;;31.40;16.70;;;8.60;99.90;;;;;;4930781;29;20231;-87
2023/04/22 05:57:55;;;;;;;27.67;14.37;;;8.50;99.90;;;;;;4911154;29;20198;-88
2023/04/22 06:00:40;;;;;;;28.97;17.03;;;8.60;99.90;;;;;;4904525;29;20656;-89
2023/04/22 06:03:11;;;;;;;30.13;16.53;;;8.30;99.90;;;;;;4921139;29;20213;-87
2023/04/22 06:05:45;;;;;;;26.70;15.67;;;9.20;99.90;;;;;;4903247;29;20206;-86
2023/04/22 06:08:12;;;;;;;26.47;16.37;;;8.70;99.90;;;;;;4923443;29;20222;-86
2023/04/22 06:10:42;;;;;;;27.47;16.07;;;10.30;99.90;;;;;;4918933;29;20221;-85
2023/04/22 06:13:11;;;;;;;32.13;17.63;;;9.00;99.90;;;;;;4922059;29;20210;-88
2023/04/22 06:15:38;;;;;;;27.60;15.97;;;10.10;99.90;;;;;;4932522;29;20229;-86
2023/04/22 06:18:05;;;;;;;26.67;17.23;;;9.50;99.90;;;;;;4920704;29;20265;-86
2023/04/22 06:20:35;;;;;;;29.53;17.60;;;9.10;99.90;;;;;;4917367;29;20663;-87
2023/04/22 06:23:06;;;;;;;27.30;17.50;;;9.10;99.90;;;;;;4918579;29;20618;-85
2023/04/22 06:25:33;;;;;;;24.70;15.67;;;9.20;99.90;;;;;;4923385;29;20212;-90
2023/04/22 06:28:01;;;;;;;28.60;17.27;;;9.40;99.90;;;;;;4904398;29;20214;-86
2023/04/22 06:30:28;;;;;;;26.13;15.93;;;9.40;99.90;;;;;;4917497;29;20226;-88
2023/04/22 06:32:55;;;;;;;29.13;18.03;;;9.40;99.90;;;;;;4902332;29;20722;-88
2023/04/22 06:35:23;;;;;;;29.20;17.97;;;9.60;99.90;;;;;;4915336;29;20205;-86
2023/04/22 06:37:51;;;;;;;26.87;18.10;;;9.60;99.90;;;;;;4916445;29;20313;-86
2023/04/22 06:40:21;;;;;;;27.93;18.17;;;9.70;99.90;;;;;;4931470;29;20248;-86
2023/04/22 06:42:48;;;;;;;27.97;17.90;;;9.70;99.90;;;;;;4911179;29;20323;-85
2023/04/22 06:45:19;;;;;;;33.87;19.50;;;10.20;99.90;;;;;;4932972;29;20218;-85
2023/04/22 06:47:46;;;;;;;29.67;19.67;;;10.20;99.90;;;;;;4909174;29;20297;-86
2023/04/22 06:50:13;;;;;;;30.93;21.07;;;10.20;99.90;;;;;;4918385;29;20984;-85
2023/04/22 06:52:41;;;;;;;30.27;21.83;;;10.40;99.90;;;;;;4897839;29;20205;-86
2023/04/22 06:55:09;;;;;;;27.83;20.00;;;10.60;99.90;;;;;;4911532;29;20298;-85
2023/04/22 06:57:36;;;;;;;29.27;20.90;;;10.80;99.90;;;;;;4913389;29;20216;-86
2023/04/22 07:00:09;;;;;;;32.13;21.77;;;10.90;99.90;;;;;;4914386;29;20221;-86
2023/04/22 07:02:39;;;;;;;34.90;23.57;;;11.10;99.90;;;;;;4901462;29;20270;-90
2023/04/22 07:05:07;;;;;;;32.80;23.23;;;11.20;99.90;;;;;;4898243;29;20626;-85
2023/04/22 07:07:35;;;;;;;31.67;22.67;;;11.50;99.90;;;;;;4917651;29;20225;-86
2023/04/22 07:10:04;;;;;;;36.97;25.07;;;11.60;99.90;;;;;;4927983;29;20233;-87
2023/04/22 07:12:38;;;;;;;25.03;19.70;;;12.00;99.90;;;;;;4896359;29;20204;-86
2023/04/22 07:15:07;;;;;;;23.00;17.27;;;12.90;99.90;;;;;;4894794;29;20222;-87
2023/04/22 07:17:34;;;;;;;22.10;16.07;;;14.00;99.90;;;;;;4913649;29;20257;-85
2023/04/22 07:20:05;;;;;;;20.10;15.82;;;15.00;99.90;;;;;;4911653;29;20253;-89
2023/04/22 07:22:32;;;;;;;20.10;14.05;;;16.00;99.90;;;;;;4917233;29;20210;-90
2023/04/22 07:24:59;;;;;;;16.83;13.77;;;17.00;99.90;;;;;;4901824;29;20198;-90
2023/04/22 07:27:26;;;;;;;16.38;13.55;;;17.90;99.90;;;;;;4914930;29;20269;-89
2023/04/22 07:30:00;;;;;;;14.70;12.35;;;18.70;99.90;;;;;;4896424;29;20274;-87
2023/04/22 07:32:51;;;;;;;16.90;12.82;;;18.90;99.90;;;;;;4900714;29;20210;-87
2023/04/22 07:35:18;;;;;;;15.65;13.18;;;19.40;99.90;;;;;;4914355;29;20215;-86
2023/04/22 07:37:45;;;;;;;14.35;12.43;;;19.60;99.90;;;;;;4912917;29;20258;-87
2023/04/22 07:40:13;;;;;;;16.35;12.95;;;19.50;99.90;;;;;;4898162;29;20210;-88
2023/04/22 07:42:41;;;;;;;15.82;13.85;;;19.50;99.90;;;;;;4895663;29;20221;-88
2023/04/22 07:45:11;;;;;;;15.40;12.30;;;19.20;99.90;;;;;;4899941;29;20864;-87
2023/04/22 07:47:48;;;;;;;16.27;13.35;;;19.00;99.90;;;;;;4908001;29;20226;-88
2023/04/22 07:50:15;;;;;;;16.38;12.93;;;18.70;99.90;;;;;;4906555;29;20209;-86
2023/04/22 07:52:42;;;;;;;16.20;11.73;;;19.00;99.90;;;;;;4917040;29;20201;-86
2023/04/22 07:55:10;;;;;;;15.77;12.63;;;18.60;99.90;;;;;;4910966;29;20213;-88
2023/04/22 07:57:38;;;;;;;15.60;12.70;;;18.60;99.90;;;;;;4918293;29;20758;-87
2023/04/22 08:00:07;;;;;;;16.45;12.68;;;19.10;99.90;;;;;;4919728;29;20226;-88
2023/04/22 08:02:35;;;;;;;13.95;12.02;;;19.20;99.90;;;;;;4902154;29;20222;-89
2023/04/22 08:05:03;;;;;;;15.25;12.15;;;19.40;99.90;;;;;;4918303;29;20213;-89
2023/04/22 08:07:31;;;;;;;16.13;11.50;;;20.10;99.90;;;;;;4914181;29;20217;-86
2023/04/22 08:09:59;;;;;;;16.73;12.05;;;20.70;99.90;;;;;;4917418;29;20276;-88
2023/04/22 08:12:28;;;;;;;15.32;12.27;;;20.70;99.90;;;;;;4913034;29;20262;-91
2023/04/22 08:14:57;;;;;;;14.82;12.07;;;20.90;99.90;;;;;;4914107;29;20258;-90
2023/04/22 08:17:25;;;;;;;12.85;10.93;;;21.00;99.90;;;;;;4933342;29;20209;-91
2023/04/22 08:19:55;;;;;;;11.52;10.32;;;21.00;99.90;;;;;;4904358;29;20583;-91
2023/04/22 08:22:23;;;;;;;13.68;11.48;;;21.40;99.90;;;;;;4920198;29;20568;-90
2023/04/22 08:24:52;;;;;;;12.18;10.85;;;21.50;99.90;;;;;;4902042;29;20222;-90
2023/04/22 08:27:21;;;;;;;12.00;10.27;;;21.70;99.90;;;;;;4909381;29;20221;-89
2023/04/22 08:29:48;;;;;;;13.35;10.43;;;21.90;99.90;;;;;;4917472;29;20240;-91
2023/04/22 08:32:18;;;;;;;10.77;9.68;;;22.00;99.90;;;;;;4911830;29;20216;-89
2023/04/22 08:34:46;;;;;;;13.20;10.38;;;22.20;99.90;;;;;;4926813;29;20221;-90
2023/04/22 08:37:17;;;;;;;12.10;10.50;;;22.30;99.90;;;;;;4904844;29;20292;-92
2023/04/22 08:39:45;;;;;;;14.40;11.95;;;22.50;99.90;;;;;;4914596;29;20666;-89
2023/04/22 08:42:14;;;;;;;12.88;10.57;;;22.80;99.90;;;;;;4908347;29;20208;-90
2023/04/22 08:44:43;;;;;;;13.25;11.48;;;22.80;99.90;;;;;;4906133;29;20309;-89
2023/04/22 08:47:13;;;;;;;11.32;10.10;;;22.80;99.90;;;;;;4923442;29;20262;-89
2023/04/22 08:49:42;;;;;;;14.20;10.23;;;22.70;99.90;;;;;;4921271;29;20237;-89
2023/04/22 08:52:11;;;;;;;12.55;10.85;;;22.40;99.90;;;;;;4921715;29;20218;-89
2023/04/22 08:54:38;;;;;;;13.52;10.60;;;22.20;99.90;;;;;;4905033;29;20202;-89
2023/04/22 08:57:07;;;;;;;12.82;11.23;;;21.90;99.90;;;;;;4904225;29;20568;-88
2023/04/22 08:59:35;;;;;;;14.07;10.77;;;21.50;99.90;;;;;;4904486;29;20782;-87
2023/04/22 09:02:06;;;;;;;13.45;10.77;;;21.30;99.90;;;;;;4925663;29;20205;-87
2023/04/22 09:04:33;;;;;;;14.98;10.85;;;21.10;99.90;;;;;;4917958;29;20245;-86
2023/04/22 09:07:01;;;;;;;13.27;10.93;;;20.90;99.90;;;;;;4915528;29;20538;-85
2023/04/22 09:09:30;;;;;;;15.63;11.25;;;20.80;99.90;;;;;;4913973;29;20717;-86
2023/04/22 09:12:00;;;;;;;14.18;10.38;;;21.10;99.90;;;;;;4893299;29;20217;-85
2023/04/22 09:14:27;;;;;;;12.82;10.52;;;21.20;99.90;;;;;;4912062;29;20313;-86
2023/04/22 09:16:57;;;;;;;13.82;11.30;;;21.50;99.90;;;;;;4911675;29;20222;-87
2023/04/22 09:19:24;;;;;;;11.63;10.38;;;21.80;99.90;;;;;;4911527;29;20277;-85
2023/04/22 09:21:57;;;;;;;12.85;10.40;;;21.90;99.90;;;;;;4913383;29;20221;-87
2023/04/22 09:24:24;;;;;;;11.65;9.93;;;22.10;99.90;;;;;;4909255;29;20242;-86
2023/04/22 09:26:55;;;;;;;11.63;9.48;;;22.20;99.90;;;;;;4916130;29;20212;-86
2023/04/22 09:29:29;;;;;;;14.38;10.38;;;22.30;99.90;;;;;;4912253;29;20245;-86
2023/04/22 09:31:56;;;;;;;12.77;10.15;;;22.40;99.90;;;;;;4913631;29;20210;-86
2023/04/22 09:34:23;;;;;;;12.43;9.55;;;22.30;99.90;;;;;;4912995;29;20246;-87
2023/04/22 09:36:50;;;;;;;13.13;9.60;;;22.30;99.90;;;;;;4894781;29;20198;-84
2023/04/22 09:39:22;;;;;;;13.60;9.65;;;22.30;99.90;;;;;;4910814;29;20241;-86
2023/04/22 09:41:55;;;;;;;11.40;9.07;;;22.20;99.90;;;;;;4914014;29;20228;-90
2023/04/22 09:44:30;;;;;;;12.05;9.55;;;22.00;99.90;;;;;;4902702;29;20449;-90
2023/04/22 09:46:58;;;;;;;12.25;9.82;;;21.70;99.90;;;;;;4899353;29;20230;-87
2023/04/22 09:49:30;;;;;;;12.55;10.43;;;21.70;99.90;;;;;;4911989;29;20258;-91
2023/04/22 09:51:58;;;;;;;12.48;10.18;;;21.70;99.90;;;;;;4897096;29;20211;-87
2023/04/22 09:54:24;;;;;;;13.90;10.30;;;21.70;99.90;;;;;;4914362;29;20210;-87
2023/04/22 09:56:55;;;;;;;12.13;9.95;;;21.80;99.90;;;;;;4905356;29;20206;-88
2023/04/22 09:59:25;;;;;;;12.13;9.52;;;21.90;99.90;;;;;;4914651;29;20273;-86
2023/04/22 10:02:03;;;;;;;13.05;10.57;;;21.90;99.90;;;;;;4911587;29;20217;-86
2023/04/22 10:04:30;;;;;;;12.48;9.98;;;22.10;99.90;;;;;;4916762;29;20214;-90
2023/04/22 10:07:01;;;;;;;11.75;10.30;;;22.20;99.90;;;;;;4897219;29;20221;-87
2023/04/22 10:09:28;;;;;;;12.55;9.75;;;22.30;99.90;;;;;;4913760;29;20334;-87
2023/04/22 10:11:57;;;;;;;12.23;10.07;;;22.40;99.90;;;;;;4912289;29;20262;-90
2023/04/22 10:14:26;;;;;;;14.88;10.85;;;22.40;99.90;;;;;;4896562;29;20206;-89
2023/04/22 10:16:57;;;;;;;13.52;10.30;;;22.50;99.90;;;;;;4917050;29;20218;-88
2023/04/22 10:19:27;;;;;;;14.57;9.85;;;22.60;99.90;;;;;;4900744;29;20260;-89
2023/04/22 10:22:02;;;;;;;13.18;10.07;;;22.50;99.90;;;;;;4902753;29;20210;-90
2023/04/22 10:24:35;;;;;;;11.40;9.93;;;22.50;99.90;;;;;;4922958;29;20626;-87
2023/04/22 10:27:07;;;;;;;11.70;10.07;;;22.20;99.90;;;;;;4907431;29;20341;-88
2023/04/22 10:29:37;;;;;;;12.45;10.00;;;22.00;99.90;;;;;;4916048;29;20282;-87
2023/04/22 10:32:17;;;;;;;12.18;9.90;;;22.00;99.90;;;;;;4914939;29;20203;-86
2023/04/22 10:34:49;;;;;;;11.38;8.60;;;21.80;99.90;;;;;;4916295;29;20220;-90
2023/04/22 10:37:20;;;;;;;11.98;9.38;;;21.80;99.90;;;;;;4919569;29;20318;-88
2023/04/22 10:40:06;;;;;;;12.07;9.13;;;21.60;99.90;;;;;;4919970;29;20329;-88
2023/04/22 10:42:35;;;;;;;12.93;9.27;;;21.50;99.90;;;;;;4914769;29;20206;-86
2023/04/22 10:45:04;;;;;;;12.63;8.93;;;21.50;99.90;;;;;;4916603;29;20245;-86
2023/04/22 10:47:40;;;;;;;11.23;9.23;;;21.40;99.90;;;;;;4913829;29;20266;-91
2023/04/22 10:50:16;;;;;;;10.73;8.32;;;21.30;99.90;;;;;;4906906;29;20193;-89
2023/04/22 10:52:55;;;;;;;9.98;8.43;;;21.30;99.90;;;;;;4901759;29;20229;-89
2023/04/22 10:55:26;;;;;;;10.10;8.57;;;21.30;99.90;;;;;;4910513;29;20210;-91
2023/04/22 10:57:59;;;;;;;11.15;8.32;;;21.40;99.90;;;;;;4910472;29;20237;-89
2023/04/22 11:00:37;;;;;;;11.20;7.78;;;21.50;99.90;;;;;;4894660;29;20240;-89
2023/04/22 11:03:28;;;;;;;10.30;7.90;;;21.50;99.90;;;;;;4909075;29;20297;-91
2023/04/22 11:06:26;;;;;;;11.02;8.75;;;21.40;99.90;;;;;;4916470;29;20292;-89
2023/04/22 11:09:16;;;;;;;9.77;8.35;;;21.50;99.90;;;;;;4915199;29;20242;-90
2023/04/22 11:11:48;;;;;;;9.57;7.80;;;21.60;99.90;;;;;;4903371;29;20225;-90
2023/04/22 11:14:17;;;;;;;10.32;8.18;;;21.50;99.90;;;;;;4902021;29;20680;-88
2023/04/22 11:16:47;;;;;;;9.05;8.00;;;21.50;99.90;;;;;;4916290;29;20728;-90
2023/04/22 11:19:14;;;;;;;10.98;8.65;;;21.60;99.90;;;;;;4900115;29;20249;-82
2023/04/22 11:21:42;;;;;;;10.25;8.73;;;21.60;99.90;;;;;;4893088;29;20209;-87
2023/04/22 11:24:09;;;;;;;9.52;8.50;;;21.50;99.90;;;;;;4896681;29;20241;-86
2023/04/22 11:26:40;;;;;;;11.95;8.23;;;21.50;99.90;;;;;;4915305;29;20214;-85
2023/04/22 11:29:13;;;;;;;11.80;8.10;;;21.50;99.90;;;;;;4904930;29;20305;-85
2023/04/22 11:31:45;;;;;;;11.98;8.00;;;21.50;99.90;;;;;;4907067;29;20225;-87
2023/04/22 11:34:18;;;;;;;9.70;7.57;;;21.40;99.90;;;;;;4898051;29;20217;-84
2023/04/22 11:36:45;;;;;;;10.95;8.23;;;21.30;99.90;;;;;;4913752;29;20206;-85
2023/04/22 11:39:16;;;;;;;11.68;8.50;;;21.20;99.90;;;;;;4919082;29;20369;-83
2023/04/22 11:41:48;;;;;;;11.73;8.02;;;21.20;99.90;;;;;;4898189;29;20281;-82
2023/04/22 11:44:25;;;;;;;9.75;8.20;;;21.40;99.90;;;;;;4910384;29;20317;-83
2023/04/22 11:46:59;;;;;;;8.98;7.97;;;21.60;99.90;;;;;;4891499;29;20255;-84
2023/04/22 11:49:34;;;;;;;10.38;7.85;;;21.80;99.90;;;;;;4911184;29;20207;-85
2023/04/22 11:52:01;;;;;;;10.82;7.88;;;21.90;99.90;;;;;;4893260;29;20265;-83
2023/04/22 11:54:43;;;;;;;10.30;8.23;;;22.00;99.90;;;;;;4911089;29;20218;-85
2023/04/22 11:57:14;;;;;;;8.95;7.93;;;22.10;99.90;;;;;;4894422;29;20209;-84
2023/04/22 11:59:58;;;;;;;10.30;7.70;;;22.00;99.90;;;;;;4895411;29;20236;-82
2023/04/22 12:02:38;;;;;;;9.48;7.10;;;22.10;99.90;;;;;;4911219;29;20239;-82
2023/04/22 12:05:40;;;;;;;10.50;8.80;;;22.10;99.90;;;;;;4892882;29;20912;-85
2023/04/22 12:08:13;;;;;;;9.30;8.23;;;22.10;99.90;;;;;;4909996;29;20265;-87
2023/04/22 12:10:53;;;;;;;8.50;7.60;;;22.00;99.90;;;;;;4892630;29;20237;-84
2023/04/22 12:13:33;;;;;;;10.10;8.55;;;21.90;99.90;;;;;;4907208;29;20261;-83
2023/04/22 12:16:05;;;;;;;11.43;8.60;;;21.70;99.90;;;;;;4907639;29;20217;-85
2023/04/22 12:18:57;;;;;;;11.00;8.85;;;21.50;99.90;;;;;;4892496;29;20205;-84
2023/04/22 12:21:31;;;;;;;9.70;8.65;;;21.30;99.90;;;;;;4909150;29;20209;-83
2023/04/22 12:24:10;;;;;;;11.85;8.85;;;21.20;99.90;;;;;;4907788;29;20285;-85
2023/04/22 12:26:45;;;;;;;9.80;8.77;;;21.20;99.90;;;;;;4908902;29;20295;-83
2023/04/22 12:29:12;;;;;;;10.35;9.00;;;21.10;99.90;;;;;;4904676;29;20248;-82
2023/04/22 12:31:44;;;;;;;12.27;8.55;;;21.10;99.90;;;;;;4922699;29;20226;-81
2023/04/22 12:34:12;;;;;;;11.02;8.90;;;21.10;99.90;;;;;;4911958;29;20935;-83
2023/04/22 12:36:39;;;;;;;12.98;8.68;;;20.90;99.90;;;;;;4893250;29;20214;-87
2023/04/22 12:39:42;;;;;;;12.45;8.77;;;20.90;99.90;;;;;;4913701;29;20225;-89
2023/04/22 12:42:14;;;;;;;11.52;9.65;;;20.60;99.90;;;;;;4925001;29;20217;-91
2023/04/22 12:44:45;;;;;;;12.30;9.40;;;20.50;99.90;;;;;;4921701;29;20212;-88
2023/04/22 12:47:18;;;;;;;10.27;8.80;;;20.40;99.90;;;;;;4922967;29;20233;-88
2023/04/22 12:49:46;;;;;;;11.88;9.73;;;20.20;99.90;;;;;;4920523;29;20221;-90
2023/04/22 12:52:14;;;;;;;11.57;9.15;;;20.00;99.90;;;;;;4913670;29;20212;-89
2023/04/22 12:54:41;;;;;;;12.43;9.75;;;20.00;99.90;;;;;;4905553;29;20702;-89
2023/04/22 12:57:13;;;;;;;14.20;9.45;;;20.00;99.90;;;;;;4903849;29;20202;-89
2023/04/22 12:59:43;;;;;;;11.82;9.40;;;19.80;99.90;;;;;;4901762;29;20226;-91
2023/04/22 13:02:11;;;;;;;11.60;10.15;;;19.80;99.90;;;;;;4919971;29;20297;-90
2023/04/22 13:04:58;;;;;;;12.05;9.40;;;19.90;99.90;;;;;;4921082;29;20228;-91
2023/04/22 13:07:42;;;;;;;12.13;9.13;;;19.70;99.90;;;;;;4923086;29;20229;-87
2023/04/22 13:10:36;;;;;;;11.73;9.23;;;19.50;99.90;;;;;;4922558;29;20302;-92
2023/04/22 13:13:08;;;;;;;13.18;9.40;;;19.40;99.90;;;;;;4907399;29;20205;-92
2023/04/22 13:26:47;;;;;;;11.20;9.40;;;19.20;99.90;;;;;;4898607;29;20205;-87